createdAt,value
2023-01-28T00:04:14.637Z,99530.30
2023-01-28T00:09:21.892Z,99531.74
2023-01-28T00:20:08.196Z,99526.19
2023-01-28T00:25:18.452Z,99528.23
2023-01-28T00:30:25.991Z,99535.80
2023-01-28T00:35:33.372Z,99537.66
2023-01-28T00:40:40.773Z,99542.04
2023-01-28T00:45:50.305Z,99539.17
2023-01-28T00:50:58.447Z,99532.14
2023-01-28T00:56:07.236Z,99534.99
2023-01-28T01:01:17.589Z,99537.13
2023-01-28T01:06:26.329Z,99536.33
2023-01-28T01:11:37.012Z,99536.80
2023-01-28T01:16:44.482Z,99537.77
2023-01-28T01:21:51.736Z,99542.13
2023-01-28T01:26:58.962Z,99543.95
2023-01-28T01:32:05.005Z,99547.09
2023-01-28T01:37:13.292Z,99546.70
2023-01-28T01:42:20.876Z,99554.68
2023-01-28T01:47:34.314Z,99558.13
2023-01-28T01:52:42.969Z,99560.02
2023-01-28T01:57:53.501Z,99566.92
2023-01-28T02:03:01.176Z,99558.13
2023-01-28T02:08:25.753Z,99560.04
2023-01-28T02:13:38.377Z,99564.35
2023-01-28T02:18:46.212Z,99566.33
2023-01-28T02:24:08.911Z,99568.41
2023-01-28T02:29:22.181Z,99574.58
2023-01-28T02:34:37.630Z,99576.02
2023-01-28T02:39:49.942Z,99566.92
2023-01-28T02:44:57.342Z,99565.10
2023-01-28T02:50:09.179Z,99565.79
2023-01-28T02:55:26.469Z,99570.05
2023-01-28T03:00:41.724Z,99571.01
2023-01-28T03:06:07.142Z,99574.60
2023-01-28T03:11:33.232Z,99580.20
2023-01-28T03:16:59.371Z,99576.48
2023-01-28T03:22:25.322Z,99569.22
2023-01-28T03:37:54.900Z,99563.22
2023-01-28T03:43:03.121Z,99567.22
2023-01-28T03:48:10.739Z,99570.71
2023-01-28T03:53:20.317Z,99570.30
2023-01-28T03:58:47.045Z,99575.50
2023-01-28T04:03:55.178Z,99578.65
2023-01-28T04:09:02.676Z,99576.27
2023-01-28T04:14:10.595Z,99578.69
2023-01-28T04:19:18.538Z,99579.16
2023-01-28T04:24:26.493Z,99583.04
2023-01-28T04:29:34.349Z,99585.45
2023-01-28T04:34:41.772Z,99584.41
2023-01-28T04:39:49.267Z,99587.93
2023-01-28T04:44:58.392Z,99590.86
2023-01-28T04:50:06.283Z,99592.39
2023-01-28T04:55:14.592Z,99595.29
2023-01-28T05:00:23.314Z,99591.29
2023-01-28T05:05:30.515Z,99595.56
2023-01-28T05:10:37.916Z,99598.88
2023-01-28T05:15:45.760Z,99608.33
2023-01-28T05:20:53.464Z,99618.06
2023-01-28T05:26:00.861Z,99618.83
2023-01-28T05:31:11.615Z,99626.67
2023-01-28T05:36:19.500Z,99624.98
2023-01-28T05:41:26.712Z,99629.25
2023-01-28T05:46:32.740Z,99624.38
2023-01-28T05:51:41.019Z,99624.98
2023-01-28T05:56:48.930Z,99631.92
2023-01-28T06:01:56.427Z,99637.40
2023-01-28T06:07:03.648Z,99645.19
2023-01-28T06:12:11.512Z,99647.17
2023-01-28T06:17:19.045Z,99658.52
2023-01-28T06:25:11.605Z,99668.51
2023-01-28T06:30:20.321Z,99678.59
2023-01-28T06:35:28.295Z,99685.86
2023-01-28T06:40:36.193Z,99688.54
2023-01-28T06:45:44.562Z,99686.38
2023-01-28T06:50:52.967Z,99689.51
2023-01-28T06:56:00.874Z,99696.66
2023-01-28T07:01:08.581Z,99702.35
2023-01-28T07:06:16.903Z,99708.33
2023-01-28T07:11:24.733Z,99709.03
2023-01-28T07:16:32.343Z,99710.55
2023-01-28T07:21:39.946Z,99718.46
2023-01-28T07:26:49.070Z,99721.38
2023-01-28T07:31:56.569Z,99731.21
2023-01-28T07:37:04.092Z,99737.52
2023-01-28T07:42:13.840Z,99737.52
2023-01-28T07:47:23.309Z,99735.92
2023-01-28T07:52:32.039Z,99735.29
2023-01-28T07:57:49.212Z,99733.21
2023-01-28T08:03:00.892Z,99737.79
2023-01-28T08:08:09.934Z,99741.80
2023-01-28T08:13:18.987Z,99742.29
2023-01-28T08:18:26.890Z,99746.90
2023-01-28T08:23:35.305Z,99749.27
2023-01-28T08:28:43.035Z,99747.56
2023-01-28T08:33:50.362Z,99755.98
2023-01-28T08:38:57.549Z,99765.38
2023-01-28T08:44:04.104Z,99761.98
2023-01-28T08:49:12.375Z,99770.29
2023-01-28T08:54:20.748Z,99771.66
2023-01-28T08:59:28.370Z,99775.46
2023-01-28T09:04:36.747Z,99778.48
2023-01-28T09:09:44.509Z,99781.58
2023-01-28T09:14:52.529Z,99785.04
2023-01-28T09:20:00.172Z,99782.30
2023-01-28T09:25:09.548Z,99785.30
2023-01-28T09:30:18.592Z,99786.39
2023-01-28T09:35:26.549Z,99783.92
2023-01-28T09:40:42.823Z,99784.56
2023-01-28T09:45:52.515Z,99782.01
2023-01-28T09:51:03.457Z,99780.05
2023-01-28T09:56:21.161Z,99782.48
2023-01-28T10:01:43.003Z,99776.80
2023-01-28T10:07:00.344Z,99775.32
2023-01-28T10:12:23.021Z,99771.55
2023-01-28T10:17:37.187Z,99769.91
2023-01-28T10:22:50.006Z,99771.55
2023-01-28T10:27:58.497Z,99766.98
2023-01-28T10:33:18.663Z,99769.59
2023-01-28T10:38:28.496Z,99768.41
2023-01-28T10:43:40.391Z,99768.09
2023-01-28T10:48:56.162Z,99767.77
2023-01-28T10:54:04.722Z,99771.10
2023-01-28T10:59:27.689Z,99771.34
2023-01-28T11:04:37.664Z,99766.57
2023-01-28T11:09:49.216Z,99760.48
2023-01-28T11:14:58.145Z,99757.52
2023-01-28T11:20:20.707Z,99760.81
2023-01-28T11:25:32.523Z,99760.20
2023-01-28T11:30:42.194Z,99756.95
2023-01-28T11:35:58.812Z,99751.45
2023-01-28T11:41:06.724Z,99751.18
2023-01-28T11:46:54.606Z,99746.36
2023-01-28T11:52:12.467Z,99749.48
2023-01-28T11:57:27.516Z,99744.67
2023-01-28T12:02:51.305Z,99747.60
2023-01-28T12:08:08.492Z,99740.77
2023-01-28T12:13:35.849Z,99742.86
2023-01-28T12:19:05.989Z,99740.36
2023-01-28T12:24:27.595Z,99739.02
2023-01-28T12:29:42.798Z,99740.78
2023-01-28T12:35:09.277Z,99743.09
2023-01-28T12:40:33.753Z,99743.45
2023-01-28T12:45:46.977Z,99736.44
2023-01-28T12:50:58.875Z,99740.06
2023-01-28T12:56:15.941Z,99742.04
2023-01-28T13:01:27.400Z,99743.30
2023-01-28T13:06:40.587Z,99751.79
2023-01-28T13:11:51.459Z,99753.17
2023-01-28T13:17:10.058Z,99756.09
2023-01-28T13:22:32.200Z,99757.10
2023-01-28T13:27:39.903Z,99762.52
2023-01-28T13:32:58.982Z,99767.40
2023-01-28T13:38:17.607Z,99771.15
2023-01-28T13:43:40.002Z,99772.48
2023-01-28T13:48:52.211Z,99775.66
2023-01-28T13:54:05.293Z,99782.61
2023-01-28T13:59:29.649Z,99783.82
2023-01-28T14:05:00.779Z,99785.17
2023-01-28T14:10:18.996Z,99783.00
2023-01-28T14:16:00.057Z,99783.98
2023-01-28T14:21:13.723Z,99787.02
2023-01-28T14:26:33.106Z,99792.57
2023-01-28T14:31:41.715Z,99793.11
2023-01-28T14:36:50.369Z,99799.73
2023-01-28T14:42:00.329Z,99801.85
2023-01-28T14:47:46.593Z,99796.41
2023-01-28T14:53:06.536Z,99797.02
2023-01-28T14:58:19.757Z,99800.33
2023-01-28T15:03:28.377Z,99804.48
2023-01-28T15:08:38.985Z,99801.52
2023-01-28T15:13:50.941Z,99806.13
2023-01-28T15:19:00.790Z,99808.92
2023-01-28T15:24:14.658Z,99813.13
2023-01-28T15:29:34.187Z,99819.75
2023-01-28T15:34:49.279Z,99823.58
2023-01-28T15:40:07.241Z,99827.02
2023-01-28T15:45:20.976Z,99830.75
2023-01-28T15:50:29.238Z,99835.19
2023-01-28T15:55:40.352Z,99844.44
2023-01-28T16:00:48.914Z,99843.50
2023-01-28T16:06:02.623Z,99844.90
2023-01-28T16:11:12.311Z,99842.63
2023-01-28T16:16:30.144Z,99837.98
2023-01-28T16:21:44.655Z,99845.75
2023-01-28T16:27:00.999Z,99846.02
2023-01-28T16:32:29.868Z,99848.17
2023-01-28T16:37:39.431Z,99846.38
2023-01-28T16:42:49.965Z,99848.13
2023-01-28T16:47:57.216Z,99853.52
2023-01-28T16:53:04.845Z,99857.23
2023-01-28T16:58:12.996Z,99858.00
2023-01-28T17:03:21.406Z,99863.52
2023-01-28T17:08:29.125Z,99866.71
2023-01-28T17:13:37.941Z,99862.83
2023-01-28T17:18:47.980Z,99866.31
2023-01-28T17:23:58.171Z,99863.23
2023-01-28T17:29:07.175Z,99865.14
2023-01-28T17:34:14.623Z,99862.50
2023-01-28T17:39:22.031Z,99864.77
2023-01-28T17:44:29.582Z,99863.66
2023-01-28T17:49:36.839Z,99869.36
2023-01-28T17:54:44.254Z,99874.23
2023-01-28T17:59:51.623Z,99873.20
2023-01-28T18:04:59.257Z,99875.06
2023-01-28T18:10:08.212Z,99880.73
2023-01-28T18:15:17.607Z,99886.38
2023-01-28T18:20:25.469Z,99889.27
2023-01-28T18:25:33.227Z,99895.89
2023-01-28T18:30:40.762Z,99898.40
2023-01-28T18:35:49.930Z,99898.78
2023-01-28T18:40:58.868Z,99898.69
2023-01-28T18:46:13.222Z,99897.55
2023-01-28T18:51:29.929Z,99895.42
2023-01-28T18:56:39.665Z,99895.91
2023-01-28T19:01:48.381Z,99905.53
2023-01-28T19:06:58.507Z,99905.64
2023-01-28T19:12:07.290Z,99906.38
2023-01-28T19:17:15.070Z,99911.34
2023-01-28T19:22:22.481Z,99914.27
2023-01-28T19:27:29.790Z,99919.10
2023-01-28T19:32:37.230Z,99922.27
2023-01-28T19:37:46.356Z,99922.48
2023-01-28T19:42:56.353Z,99921.41
2023-01-28T19:48:03.823Z,99927.34
2023-01-28T19:53:11.428Z,99925.41
2023-01-28T19:58:19.928Z,99931.91
2023-01-28T20:03:27.401Z,99936.02
2023-01-28T20:08:35.376Z,99940.42
2023-01-28T20:13:45.495Z,99944.80
2023-01-28T20:18:56.139Z,99941.52
2023-01-28T20:24:06.934Z,99946.88
2023-01-28T20:29:18.013Z,99944.08
2023-01-28T20:34:25.638Z,99945.75
2023-01-28T20:39:33.403Z,99946.15
2023-01-28T20:44:41.049Z,99943.01
2023-01-28T20:49:48.837Z,99949.94
2023-01-28T20:54:56.391Z,99949.29
2023-01-28T21:00:03.952Z,99949.59
2023-01-28T21:05:12.854Z,99958.45
2023-01-28T21:10:21.320Z,99959.05
2023-01-28T21:15:28.633Z,99954.77
2023-01-28T21:20:37.269Z,99952.60
2023-01-28T21:25:46.800Z,99960.16
2023-01-28T21:30:54.048Z,99957.92
2023-01-28T21:36:01.713Z,99958.70
2023-01-28T21:41:10.554Z,99963.39
2023-01-28T21:46:18.913Z,99972.42
2023-01-28T21:51:40.595Z,99984.61
2023-01-28T21:56:49.472Z,99990.30
2023-01-28T22:01:57.013Z,99986.66
2023-01-28T22:07:06.292Z,99987.14
2023-01-28T22:12:17.341Z,99982.89
2023-01-28T22:17:25.729Z,99969.48
2023-01-28T22:22:33.786Z,99969.35
2023-01-28T22:27:43.621Z,99967.94
2023-01-28T22:32:52.744Z,99973.48
2023-01-28T22:38:00.400Z,99971.10
2023-01-28T22:43:08.273Z,99967.02
2023-01-28T22:48:16.123Z,99969.85
2023-01-28T22:53:23.519Z,99969.06
2023-01-28T22:58:31.780Z,99968.52
2023-01-28T23:03:39.887Z,99966.05
2023-01-28T23:08:48.721Z,99965.35
2023-01-28T23:14:15.571Z,99970.77
2023-01-28T23:19:41.795Z,99970.39
2023-01-28T23:24:49.522Z,99967.07
2023-01-28T23:29:59.199Z,99963.84
2023-01-28T23:44:47.937Z,99954.96
2023-01-28T23:49:52.431Z,99945.23
2023-01-28T23:54:57.198Z,99952.95
